Time;durP1;ratioP1;P1;durP2;ratioP2;P2;SDS_P1;SDS_P2;PMS_P1;PMS_P2;Temp;Humidity;BMP_temperature;BMP_pressure;BME280_temperature;BME280_humidity;BME280_pressure;Samples;Min_cycle;Max_cycle;Signal;HPM_P1;HPM_P2
2021/08/11 00:00:41;;;;;;;7.15;3.97;;;;;;;;;;5094301;28;20493;-50
2021/08/11 00:03:08;;;;;;;6.45;3.80;;;;;;;;;;5094385;28;20046;-50
2021/08/11 00:05:35;;;;;;;6.65;4.60;;;;;;;;;;5106004;28;20089;-51
2021/08/11 00:08:02;;;;;;;7.22;4.57;;;;;;;;;;5110819;28;20044;-54
2021/08/11 00:10:29;;;;;;;7.97;4.63;;;;;;;;;;5094208;28;20042;-51
2021/08/11 00:12:56;;;;;;;7.65;4.18;;;;;;;;;;5094410;28;20050;-50
2021/08/11 00:15:23;;;;;;;5.65;4.25;;;;;;;;;;5101327;28;20611;-51
2021/08/11 00:17:50;;;;;;;7.95;4.13;;;;;;;;;;5113224;28;20036;-51
2021/08/11 00:20:17;;;;;;;6.97;4.25;;;;;;;;;;5108024;28;20036;-54
2021/08/11 00:22:44;;;;;;;6.47;4.30;;;;;;;;;;5093923;28;20493;-48
2021/08/11 00:25:11;;;;;;;7.68;4.57;;;;;;;;;;5093951;28;20067;-49
2021/08/11 00:27:37;;;;;;;7.18;4.28;;;;;;;;;;5093890;28;20050;-53
2021/08/11 00:30:05;;;;;;;6.93;4.30;;;;;;;;;;5109802;28;20118;-50
2021/08/11 00:32:32;;;;;;;8.02;4.38;;;;;;;;;;5093831;28;20044;-51
2021/08/11 00:34:59;;;;;;;7.30;4.30;;;;;;;;;;5108810;28;20060;-53
2021/08/11 00:37:25;;;;;;;5.38;3.78;;;;;;;;;;5109540;28;20054;-53
2021/08/11 00:39:58;;;;;;;8.07;4.55;;;;;;;;;;5111943;28;20032;-47
2021/08/11 00:42:26;;;;;;;5.57;3.85;;;;;;;;;;5102566;28;20072;-52
2021/08/11 00:44:53;;;;;;;9.38;4.47;;;;;;;;;;5093457;28;20051;-54
2021/08/11 00:47:21;;;;;;;5.93;4.03;;;;;;;;;;5107496;28;20535;-53
2021/08/11 00:49:47;;;;;;;6.20;4.15;;;;;;;;;;5092183;28;20032;-54
2021/08/11 00:52:15;;;;;;;7.60;4.13;;;;;;;;;;5111752;28;20397;-53
2021/08/11 00:54:45;;;;;;;8.40;3.95;;;;;;;;;;5110521;28;20032;-48
2021/08/11 00:57:13;;;;;;;7.22;4.78;;;;;;;;;;5112105;28;20051;-51
2021/08/11 00:59:41;;;;;;;5.65;4.03;;;;;;;;;;5092104;28;20139;-51
2021/08/11 01:02:14;;;;;;;5.68;4.13;;;;;;;;;;5092272;28;20051;-54
2021/08/11 01:04:41;;;;;;;5.50;4.07;;;;;;;;;;5092846;28;20044;-53
2021/08/11 01:07:09;;;;;;;5.88;4.50;;;;;;;;;;5091897;28;20093;-51
2021/08/11 01:09:37;;;;;;;6.63;4.35;;;;;;;;;;5109722;28;20581;-52
2021/08/11 01:12:05;;;;;;;7.90;5.07;;;;;;;;;;5112405;28;20119;-53
2021/08/11 01:14:32;;;;;;;6.07;4.10;;;;;;;;;;5106073;28;20042;-54
2021/08/11 01:17:04;;;;;;;7.53;4.63;;;;;;;;;;5094279;28;20044;-43
2021/08/11 01:19:33;;;;;;;7.20;4.10;;;;;;;;;;5112256;28;20417;-48
2021/08/11 01:22:03;;;;;;;6.15;4.15;;;;;;;;;;5100538;28;20125;-45
2021/08/11 01:24:30;;;;;;;6.18;4.00;;;;;;;;;;5103027;28;20127;-46
2021/08/11 01:27:08;;;;;;;6.20;4.47;;;;;;;;;;5110028;28;20043;-48
2021/08/11 01:29:47;;;;;;;5.80;4.07;;;;;;;;;;5113171;28;20067;-45
2021/08/11 01:32:21;;;;;;;7.32;3.97;;;;;;;;;;5100023;28;20072;-49
2021/08/11 01:34:48;;;;;;;6.75;4.38;;;;;;;;;;5108996;28;20031;-45
2021/08/11 01:37:23;;;;;;;6.32;4.20;;;;;;;;;;5093970;28;20037;-48
2021/08/11 01:39:52;;;;;;;7.07;3.75;;;;;;;;;;5108022;28;20039;-46
2021/08/11 01:42:23;;;;;;;4.93;3.80;;;;;;;;;;5091433;28;20111;-43
2021/08/11 01:45:11;;;;;;;8.30;3.80;;;;;;;;;;5093227;28;20055;-45
2021/08/11 01:48:01;;;;;;;5.18;3.90;;;;;;;;;;5091158;28;20067;-45
2021/08/11 01:50:33;;;;;;;6.97;4.25;;;;;;;;;;5098081;28;20466;-50
2021/08/11 01:53:01;;;;;;;5.95;4.20;;;;;;;;;;5110719;28;20054;-46
2021/08/11 01:55:31;;;;;;;7.13;4.03;;;;;;;;;;5097024;28;20088;-45
2021/08/11 01:57:59;;;;;;;4.72;3.63;;;;;;;;;;5111518;28;20039;-44
2021/08/11 02:00:30;;;;;;;4.65;3.60;;;;;;;;;;5101043;28;20378;-49
2021/08/11 02:03:01;;;;;;;5.82;3.97;;;;;;;;;;5091925;28;20040;-49
2021/08/11 02:05:30;;;;;;;6.53;4.32;;;;;;;;;;5090885;28;20123;-49
2021/08/11 02:08:05;;;;;;;6.03;3.90;;;;;;;;;;5091331;28;20151;-45
2021/08/11 02:10:32;;;;;;;5.28;3.75;;;;;;;;;;5090826;28;20122;-47
2021/08/11 02:13:00;;;;;;;7.20;4.93;;;;;;;;;;5090958;28;20037;-43
2021/08/11 02:15:29;;;;;;;5.57;4.10;;;;;;;;;;5090376;28;20068;-46
2021/08/11 02:17:56;;;;;;;6.18;4.10;;;;;;;;;;5085817;28;20200;-43
2021/08/11 02:20:24;;;;;;;4.90;3.58;;;;;;;;;;5090234;28;20032;-43
2021/08/11 02:22:56;;;;;;;5.63;4.20;;;;;;;;;;5091770;28;20040;-44
2021/08/11 02:25:24;;;;;;;7.18;4.63;;;;;;;;;;5090106;28;20065;-44
2021/08/11 02:27:58;;;;;;;6.30;3.78;;;;;;;;;;5108410;28;20412;-46
2021/08/11 02:30:28;;;;;;;7.25;4.40;;;;;;;;;;5093976;28;20412;-46
2021/08/11 02:33:02;;;;;;;6.68;4.18;;;;;;;;;;5105756;28;20114;-50
2021/08/11 02:35:37;;;;;;;4.60;3.38;;;;;;;;;;5108935;28;20042;-44
2021/08/11 02:38:07;;;;;;;5.15;3.63;;;;;;;;;;5109114;28;20062;-47
2021/08/11 02:40:37;;;;;;;6.28;3.80;;;;;;;;;;5090489;28;20040;-48
2021/08/11 02:43:07;;;;;;;9.30;4.35;;;;;;;;;;5090576;28;20509;-48
2021/08/11 02:45:38;;;;;;;6.22;4.50;;;;;;;;;;5089952;28;20044;-46
2021/08/11 02:48:05;;;;;;;5.97;4.10;;;;;;;;;;5099313;28;20040;-45
2021/08/11 02:50:34;;;;;;;6.07;3.95;;;;;;;;;;5106688;28;20147;-44
2021/08/11 02:53:02;;;;;;;5.70;3.90;;;;;;;;;;5107169;28;20046;-44
2021/08/11 02:55:30;;;;;;;5.90;3.80;;;;;;;;;;5108598;28;20653;-44
2021/08/11 02:57:57;;;;;;;6.22;4.18;;;;;;;;;;5105832;28;20051;-44
2021/08/11 03:00:25;;;;;;;5.78;4.07;;;;;;;;;;5109821;28;20484;-43
2021/08/11 03:02:53;;;;;;;9.77;4.07;;;;;;;;;;5095573;28;20563;-44
2021/08/11 03:05:21;;;;;;;6.65;4.00;;;;;;;;;;5089620;28;20040;-48
2021/08/11 03:07:48;;;;;;;6.85;4.43;;;;;;;;;;5104286;28;20071;-45
2021/08/11 03:10:18;;;;;;;7.68;3.88;;;;;;;;;;5110438;28;20385;-49
2021/08/11 03:12:46;;;;;;;6.85;4.45;;;;;;;;;;5096167;28;20128;-47
2021/08/11 03:15:15;;;;;;;6.05;3.88;;;;;;;;;;5106498;28;20040;-44
2021/08/11 03:17:46;;;;;;;6.60;4.10;;;;;;;;;;5090558;28;20113;-43
2021/08/11 03:20:13;;;;;;;7.25;4.10;;;;;;;;;;5089927;28;20471;-45
2021/08/11 03:22:40;;;;;;;5.60;3.92;;;;;;;;;;5090275;28;20443;-45
2021/08/11 03:25:08;;;;;;;7.05;4.03;;;;;;;;;;5089498;28;20064;-47
2021/08/11 03:27:35;;;;;;;6.15;4.28;;;;;;;;;;5103192;28;20118;-48
2021/08/11 03:30:05;;;;;;;6.57;4.38;;;;;;;;;;5038954;22;20113;-53
2021/08/11 03:32:32;;;;;;;5.15;3.88;;;;;;;;;;5000670;28;20065;-49
2021/08/11 03:34:58;;;;;;;8.18;4.25;;;;;;;;;;5026154;28;20041;-50
2021/08/11 03:37:50;;;;;;;5.82;4.13;;;;;;;;;;5006683;28;20050;-48
2021/08/11 03:40:17;;;;;;;5.50;4.03;;;;;;;;;;5008926;28;20125;-50
2021/08/11 03:42:45;;;;;;;6.18;3.97;;;;;;;;;;5013753;28;20045;-49
2021/08/11 03:45:13;;;;;;;6.03;4.05;;;;;;;;;;5029869;28;20050;-47
2021/08/11 03:47:43;;;;;;;7.30;4.22;;;;;;;;;;5011022;28;20096;-51
2021/08/11 03:50:11;;;;;;;5.57;4.07;;;;;;;;;;5013968;28;20121;-50
2021/08/11 03:52:40;;;;;;;6.50;4.22;;;;;;;;;;5013219;28;20857;-52
2021/08/11 03:55:08;;;;;;;5.97;4.03;;;;;;;;;;5012982;28;20056;-49
2021/08/11 03:57:35;;;;;;;5.88;3.95;;;;;;;;;;5002867;28;20038;-48
2021/08/11 04:00:03;;;;;;;7.10;4.55;;;;;;;;;;4994111;28;20077;-51
2021/08/11 04:02:30;;;;;;;6.32;4.03;;;;;;;;;;5008845;28;20065;-51
2021/08/11 04:04:57;;;;;;;5.70;4.10;;;;;;;;;;5013444;28;20054;-51
2021/08/11 04:07:23;;;;;;;5.53;3.80;;;;;;;;;;5015666;28;20499;-51
2021/08/11 04:09:50;;;;;;;7.40;4.00;;;;;;;;;;4995329;28;20038;-50
2021/08/11 04:12:17;;;;;;;6.25;4.45;;;;;;;;;;4995089;28;20100;-51
2021/08/11 04:14:44;;;;;;;6.68;4.13;;;;;;;;;;4995235;28;20487;-52
2021/08/11 04:17:12;;;;;;;6.07;4.05;;;;;;;;;;4994739;28;20043;-52
2021/08/11 04:19:49;;;;;;;7.63;4.10;;;;;;;;;;4998961;28;20034;-52
2021/08/11 04:22:24;;;;;;;5.90;4.10;;;;;;;;;;5006008;28;20045;-48
2021/08/11 04:24:51;;;;;;;5.30;3.90;;;;;;;;;;5005223;28;20045;-52
2021/08/11 04:27:18;;;;;;;7.15;4.20;;;;;;;;;;5009880;28;20049;-53
2021/08/11 04:29:44;;;;;;;5.70;3.70;;;;;;;;;;4995039;28;20499;-51
2021/08/11 04:32:11;;;;;;;6.55;4.20;;;;;;;;;;4996673;28;20449;-52
2021/08/11 04:34:38;;;;;;;6.10;4.05;;;;;;;;;;5008485;28;20066;-52
2021/08/11 04:37:06;;;;;;;5.93;3.97;;;;;;;;;;5012412;28;20043;-53
2021/08/11 04:39:33;;;;;;;9.43;4.25;;;;;;;;;;5006221;28;20466;-50
2021/08/11 04:42:00;;;;;;;7.47;4.20;;;;;;;;;;5007877;28;20034;-53
2021/08/11 04:44:26;;;;;;;6.15;4.40;;;;;;;;;;5000566;28;20057;-49
2021/08/11 04:46:55;;;;;;;5.95;4.22;;;;;;;;;;4994625;28;20096;-50
2021/08/11 04:49:22;;;;;;;6.40;4.30;;;;;;;;;;4994253;28;20132;-47
2021/08/11 04:51:48;;;;;;;6.97;4.38;;;;;;;;;;5001554;28;20130;-46
2021/08/11 04:54:16;;;;;;;11.95;4.50;;;;;;;;;;5023334;28;20057;-46
2021/08/11 04:56:43;;;;;;;6.05;4.05;;;;;;;;;;5011971;28;20476;-54
2021/08/11 04:59:10;;;;;;;8.48;4.45;;;;;;;;;;5002412;28;20071;-52
2021/08/11 05:01:36;;;;;;;6.50;4.55;;;;;;;;;;5000157;28;20030;-50
2021/08/11 05:04:04;;;;;;;5.82;4.43;;;;;;;;;;5005198;28;20383;-51
2021/08/11 05:06:30;;;;;;;7.80;4.50;;;;;;;;;;5000465;28;20049;-53
2021/08/11 05:08:57;;;;;;;6.00;4.10;;;;;;;;;;5002043;28;20096;-52
2021/08/11 05:11:25;;;;;;;9.30;4.53;;;;;;;;;;5006949;28;20116;-55
2021/08/11 05:13:51;;;;;;;8.80;4.55;;;;;;;;;;5002417;28;20042;-50
2021/08/11 05:16:18;;;;;;;6.28;4.45;;;;;;;;;;5002685;28;20050;-51
2021/08/11 05:18:45;;;;;;;6.88;4.88;;;;;;;;;;5001333;28;20606;-48
2021/08/11 05:21:12;;;;;;;7.65;3.83;;;;;;;;;;4999144;28;20030;-47
2021/08/11 05:23:38;;;;;;;6.88;4.35;;;;;;;;;;5000485;28;20097;-48
2021/08/11 05:26:05;;;;;;;8.35;4.80;;;;;;;;;;4999769;28;20045;-56
2021/08/11 05:28:32;;;;;;;6.47;4.25;;;;;;;;;;5001606;28;20487;-56
2021/08/11 05:30:58;;;;;;;6.68;4.53;;;;;;;;;;5006345;28;20034;-48
2021/08/11 05:33:25;;;;;;;6.93;4.43;;;;;;;;;;4998761;28;20112;-50
2021/08/11 05:35:53;;;;;;;6.97;4.20;;;;;;;;;;5000818;28;20037;-47
2021/08/11 05:38:20;;;;;;;7.70;5.40;;;;;;;;;;4997588;28;20093;-52
2021/08/11 05:40:47;;;;;;;6.10;4.40;;;;;;;;;;5007259;28;20038;-50
2021/08/11 05:43:15;;;;;;;8.73;4.97;;;;;;;;;;5002739;28;20035;-47
2021/08/11 05:45:41;;;;;;;9.20;5.13;;;;;;;;;;5003687;28;20038;-50
2021/08/11 05:48:09;;;;;;;8.30;4.55;;;;;;;;;;5010422;28;20048;-51
2021/08/11 05:50:36;;;;;;;7.75;5.05;;;;;;;;;;5004142;28;20407;-53
2021/08/11 05:53:03;;;;;;;9.25;4.93;;;;;;;;;;5005696;28;20054;-49
2021/08/11 05:55:29;;;;;;;7.35;4.57;;;;;;;;;;4994903;28;20085;-46
2021/08/11 05:57:56;;;;;;;9.40;5.22;;;;;;;;;;5004261;28;20048;-48
2021/08/11 06:00:23;;;;;;;7.18;4.70;;;;;;;;;;5002965;28;20041;-48
2021/08/11 06:02:50;;;;;;;8.55;4.70;;;;;;;;;;4999398;28;20041;-50
2021/08/11 06:05:35;;;;;;;8.60;4.10;;;;;;;;;;5001397;28;20419;-48
2021/08/11 06:08:02;;;;;;;6.88;4.10;;;;;;;;;;5006008;28;20038;-48
2021/08/11 06:10:28;;;;;;;6.13;3.83;;;;;;;;;;5001011;28;20104;-50
2021/08/11 06:12:55;;;;;;;7.30;3.60;;;;;;;;;;4999081;28;20144;-56
2021/08/11 06:15:22;;;;;;;6.75;3.72;;;;;;;;;;5004986;28;20038;-50
2021/08/11 06:17:50;;;;;;;5.78;3.58;;;;;;;;;;5003804;28;20570;-49
2021/08/11 06:20:18;;;;;;;5.07;3.00;;;;;;;;;;5003502;28;20045;-51
2021/08/11 06:22:45;;;;;;;5.18;3.35;;;;;;;;;;5010013;28;20042;-54
2021/08/11 06:25:12;;;;;;;6.78;3.40;;;;;;;;;;5024882;28;21663;-50
2021/08/11 06:27:39;;;;;;;5.05;2.85;;;;;;;;;;4998935;28;20136;-56
2021/08/11 06:30:07;;;;;;;4.95;3.13;;;;;;;;;;5006661;28;20050;-54
2021/08/11 06:32:34;;;;;;;5.93;3.10;;;;;;;;;;5008505;28;20058;-50
2021/08/11 06:35:02;;;;;;;5.03;2.92;;;;;;;;;;5003824;28;20048;-48
2021/08/11 06:37:29;;;;;;;5.25;3.08;;;;;;;;;;4999963;28;20038;-49
2021/08/11 06:39:56;;;;;;;4.20;2.58;;;;;;;;;;5001179;28;20408;-53
2021/08/11 06:42:22;;;;;;;3.70;2.70;;;;;;;;;;4998468;28;20060;-54
2021/08/11 06:44:55;;;;;;;9.48;2.80;;;;;;;;;;4998141;28;20121;-54
2021/08/11 06:47:22;;;;;;;4.30;2.58;;;;;;;;;;4980500;28;20042;-54
2021/08/11 06:49:49;;;;;;;4.20;2.70;;;;;;;;;;4994718;28;20070;-52
2021/08/11 06:52:16;;;;;;;5.70;2.97;;;;;;;;;;5009408;28;20068;-48
2021/08/11 06:54:42;;;;;;;4.88;2.78;;;;;;;;;;5000232;28;20046;-49
2021/08/11 06:57:09;;;;;;;6.03;2.60;;;;;;;;;;5005620;28;20088;-54
2021/08/11 06:59:36;;;;;;;4.82;2.47;;;;;;;;;;4999896;28;20411;-51
2021/08/11 07:02:03;;;;;;;5.72;2.83;;;;;;;;;;5016829;28;20072;-49
2021/08/11 07:04:30;;;;;;;3.65;2.28;;;;;;;;;;5013726;28;20422;-56
2021/08/11 07:06:56;;;;;;;5.28;2.38;;;;;;;;;;5000287;28;20042;-51
2021/08/11 07:09:24;;;;;;;5.47;2.70;;;;;;;;;;4997232;28;20130;-50
2021/08/11 07:11:51;;;;;;;4.65;2.58;;;;;;;;;;4997453;28;20500;-48
2021/08/11 07:14:17;;;;;;;4.22;2.30;;;;;;;;;;5000406;28;20523;-55
2021/08/11 07:16:44;;;;;;;4.93;2.83;;;;;;;;;;5007860;28;20557;-52
2021/08/11 07:19:11;;;;;;;4.72;2.25;;;;;;;;;;5008686;28;20112;-52
2021/08/11 07:21:41;;;;;;;3.88;2.33;;;;;;;;;;5010111;28;20056;-53
2021/08/11 07:24:09;;;;;;;4.28;1.98;;;;;;;;;;5000796;28;20050;-54
2021/08/11 07:26:35;;;;;;;4.38;2.40;;;;;;;;;;5007575;28;20042;-50
2021/08/11 07:29:02;;;;;;;4.57;2.47;;;;;;;;;;4998852;28;20472;-50
2021/08/11 07:31:29;;;;;;;4.32;2.38;;;;;;;;;;5015147;28;20044;-50
2021/08/11 07:33:56;;;;;;;3.50;2.53;;;;;;;;;;5000673;28;20046;-51
2021/08/11 07:36:23;;;;;;;4.22;2.40;;;;;;;;;;5001672;28;20153;-49
2021/08/11 07:38:50;;;;;;;3.97;2.00;;;;;;;;;;5000289;28;20051;-50
2021/08/11 07:41:17;;;;;;;5.03;2.20;;;;;;;;;;4993579;28;20043;-52
2021/08/11 07:43:43;;;;;;;4.72;2.63;;;;;;;;;;4993709;28;20038;-54
2021/08/11 07:46:10;;;;;;;4.00;2.20;;;;;;;;;;4995244;28;20066;-49
2021/08/11 07:48:37;;;;;;;3.53;2.38;;;;;;;;;;4995162;28;20055;-52
2021/08/11 07:51:04;;;;;;;3.97;2.30;;;;;;;;;;4995401;28;20043;-52
2021/08/11 07:53:31;;;;;;;3.92;2.20;;;;;;;;;;5010509;28;20053;-51
2021/08/11 07:56:00;;;;;;;4.57;2.05;;;;;;;;;;4994856;28;20043;-51
2021/08/11 07:58:26;;;;;;;4.40;2.13;;;;;;;;;;4995250;28;20069;-48
2021/08/11 08:00:53;;;;;;;3.95;2.10;;;;;;;;;;4995303;28;20492;-50
2021/08/11 08:03:20;;;;;;;4.93;1.98;;;;;;;;;;4995691;28;20038;-54
2021/08/11 08:05:47;;;;;;;3.33;1.98;;;;;;;;;;4995987;28;20486;-49
2021/08/11 08:08:14;;;;;;;3.92;2.00;;;;;;;;;;4996924;28;20066;-49
2021/08/11 08:10:41;;;;;;;6.15;2.17;;;;;;;;;;4995554;28;20070;-48
2021/08/11 08:13:07;;;;;;;5.63;2.20;;;;;;;;;;4995384;28;20054;-48
2021/08/11 08:15:34;;;;;;;3.50;1.70;;;;;;;;;;4977322;28;20588;-51
2021/08/11 08:18:02;;;;;;;3.10;1.85;;;;;;;;;;4992889;28;20117;-50
2021/08/11 08:20:30;;;;;;;3.67;2.05;;;;;;;;;;4995122;28;20133;-50
2021/08/11 08:22:57;;;;;;;4.50;2.10;;;;;;;;;;4995210;28;20457;-53
2021/08/11 08:25:24;;;;;;;4.35;1.92;;;;;;;;;;4995008;28;20411;-51
2021/08/11 08:27:52;;;;;;;5.03;2.03;;;;;;;;;;5001760;28;20042;-57
2021/08/11 08:30:39;;;;;;;6.32;2.70;;;;;;;;;;5004231;28;20039;-55
2021/08/11 08:33:06;;;;;;;4.05;2.10;;;;;;;;;;5006755;28;20056;-56
2021/08/11 08:35:33;;;;;;;4.85;3.50;;;;;;;;;;5002378;28;20420;-59
2021/08/11 08:38:00;;;;;;;4.22;2.22;;;;;;;;;;5002923;28;20129;-54
2021/08/11 08:40:33;;;;;;;3.72;2.30;;;;;;;;;;5001159;28;20040;-54
2021/08/11 08:43:00;;;;;;;4.55;2.30;;;;;;;;;;5009599;28;20128;-50
2021/08/11 08:45:26;;;;;;;3.90;2.10;;;;;;;;;;5004578;28;20038;-48
2021/08/11 08:47:54;;;;;;;3.80;2.30;;;;;;;;;;5004392;28;20525;-49
2021/08/11 08:50:22;;;;;;;3.13;2.20;;;;;;;;;;5012451;28;20049;-47
2021/08/11 08:52:49;;;;;;;5.65;2.20;;;;;;;;;;5001969;28;20049;-47
2021/08/11 08:55:17;;;;;;;3.75;2.10;;;;;;;;;;5002704;28;20069;-50
2021/08/11 08:57:44;;;;;;;5.93;2.30;;;;;;;;;;5005056;28;20128;-49
2021/08/11 09:00:11;;;;;;;3.60;2.22;;;;;;;;;;5005254;28;20383;-50
2021/08/11 09:02:39;;;;;;;4.60;2.03;;;;;;;;;;5007545;28;20041;-47
2021/08/11 09:05:10;;;;;;;3.50;2.28;;;;;;;;;;5006714;28;20049;-54
2021/08/11 09:07:41;;;;;;;3.72;2.15;;;;;;;;;;5000513;28;20070;-51
2021/08/11 09:10:14;;;;;;;3.03;2.15;;;;;;;;;;5009646;28;20125;-49
2021/08/11 09:12:59;;;;;;;4.20;2.20;;;;;;;;;;5006187;28;20042;-51
2021/08/11 09:15:25;;;;;;;3.75;2.10;;;;;;;;;;5001394;28;20039;-47
2021/08/11 09:17:53;;;;;;;4.15;2.17;;;;;;;;;;4999772;28;20030;-51
2021/08/11 09:20:23;;;;;;;4.68;2.72;;;;;;;;;;5006810;28;20084;-48
2021/08/11 09:22:52;;;;;;;3.42;2.25;;;;;;;;;;5002836;28;20081;-49
2021/08/11 09:25:19;;;;;;;3.10;2.45;;;;;;;;;;5008624;28;20046;-57
2021/08/11 09:27:47;;;;;;;3.75;2.35;;;;;;;;;;5005474;28;20479;-46
2021/08/11 09:30:15;;;;;;;3.70;2.10;;;;;;;;;;5008564;28;20467;-49
2021/08/11 09:32:55;;;;;;;4.35;2.28;;;;;;;;;;5003205;28;20070;-56
2021/08/11 09:35:23;;;;;;;4.82;2.83;;;;;;;;;;5002949;28;20042;-45
2021/08/11 09:37:51;;;;;;;5.25;2.70;;;;;;;;;;4999595;28;20413;-52
2021/08/11 09:40:20;;;;;;;4.65;2.60;;;;;;;;;;5016960;28;20128;-54
2021/08/11 09:42:47;;;;;;;4.93;3.40;;;;;;;;;;5002765;28;20057;-48
2021/08/11 09:45:15;;;;;;;3.92;2.65;;;;;;;;;;4999218;28;20046;-53
2021/08/11 09:48:01;;;;;;;4.65;2.65;;;;;;;;;;4998951;28;20570;-55
2021/08/11 09:50:33;;;;;;;4.40;2.28;;;;;;;;;;4996014;28;20054;-48
2021/08/11 09:52:59;;;;;;;3.90;2.88;;;;;;;;;;5006921;28;20053;-52
2021/08/11 09:55:27;;;;;;;5.00;2.92;;;;;;;;;;5006856;28;20038;-51
2021/08/11 09:57:54;;;;;;;5.50;2.95;;;;;;;;;;4999445;28;20050;-49
2021/08/11 10:00:21;;;;;;;6.07;2.83;;;;;;;;;;5003148;28;20048;-47
2021/08/11 10:03:00;;;;;;;4.90;2.92;;;;;;;;;;5006352;28;20092;-46
2021/08/11 10:05:31;;;;;;;4.47;2.78;;;;;;;;;;5006617;28;20042;-49
2021/08/11 10:07:58;;;;;;;4.40;2.90;;;;;;;;;;5005454;28;20049;-46
2021/08/11 10:10:25;;;;;;;5.85;3.13;;;;;;;;;;5003653;28;20547;-50
2021/08/11 10:12:52;;;;;;;5.78;3.17;;;;;;;;;;5020735;28;20507;-47
2021/08/11 10:15:20;;;;;;;4.95;3.15;;;;;;;;;;5004206;28;20046;-48
2021/08/11 10:17:49;;;;;;;3.40;2.50;;;;;;;;;;5004687;28;20041;-51
2021/08/11 10:20:19;;;;;;;4.38;3.00;;;;;;;;;;5020842;28;20509;-47
2021/08/11 10:22:46;;;;;;;5.90;3.15;;;;;;;;;;5017943;28;20121;-50
2021/08/11 10:25:14;;;;;;;4.88;3.25;;;;;;;;;;5003447;28;20542;-48
2021/08/11 10:27:44;;;;;;;4.97;3.13;;;;;;;;;;5004027;28;20120;-51
2021/08/11 10:30:12;;;;;;;4.50;3.00;;;;;;;;;;5012455;28;20045;-51
2021/08/11 10:32:39;;;;;;;4.82;2.90;;;;;;;;;;5009445;28;20039;-53
2021/08/11 10:35:06;;;;;;;4.07;3.10;;;;;;;;;;5004780;28;20148;-52
2021/08/11 10:37:34;;;;;;;6.60;3.55;;;;;;;;;;5001576;28;20158;-55
2021/08/11 10:40:01;;;;;;;5.15;3.83;;;;;;;;;;5001964;28;20061;-55
2021/08/11 10:42:28;;;;;;;8.73;3.20;;;;;;;;;;5001448;28;20056;-55
2021/08/11 10:44:59;;;;;;;6.07;3.63;;;;;;;;;;5009356;28;20099;-52
2021/08/11 10:47:32;;;;;;;5.03;3.28;;;;;;;;;;5005271;28;20126;-53
2021/08/11 10:50:00;;;;;;;4.53;3.00;;;;;;;;;;5001199;28;20133;-54
2021/08/11 10:52:29;;;;;;;4.43;3.20;;;;;;;;;;5001571;28;20065;-55
2021/08/11 10:54:59;;;;;;;6.45;3.25;;;;;;;;;;4999810;28;20408;-55
2021/08/11 10:57:31;;;;;;;5.75;3.35;;;;;;;;;;4995661;28;20038;-54
2021/08/11 10:59:58;;;;;;;5.30;3.20;;;;;;;;;;5011746;28;20050;-53
2021/08/11 11:02:40;;;;;;;6.20;3.78;;;;;;;;;;5033907;28;20184;-52
2021/08/11 11:05:07;;;;;;;;;;;;;;;;;;5004117;28;20046;-55
2021/08/11 11:07:35;;;;;;;5.45;3.45;;;;;;;;;;4996650;28;20015;-54
2021/08/11 11:10:37;;;;;;;4.93;3.30;;;;;;;;;;5000985;28;20044;-53
2021/08/11 11:13:22;;;;;;;5.32;3.60;;;;;;;;;;4969358;28;20058;-53
2021/08/11 11:15:50;;;;;;;4.10;3.00;;;;;;;;;;4996181;28;20126;-52
2021/08/11 11:18:21;;;;;;;6.80;3.55;;;;;;;;;;5002519;28;20049;-56
2021/08/11 11:20:48;;;;;;;4.65;3.45;;;;;;;;;;4992264;28;20148;-53
2021/08/11 11:23:33;;;;;;;4.55;3.33;;;;;;;;;;4991759;28;20122;-55
2021/08/11 11:26:01;;;;;;;5.25;3.42;;;;;;;;;;4991610;28;20050;-54
2021/08/11 11:28:51;;;;;;;5.03;3.38;;;;;;;;;;4990565;28;20052;-54
2021/08/11 11:31:30;;;;;;;5.75;3.22;;;;;;;;;;5006028;28;20045;-54
2021/08/11 11:34:16;;;;;;;7.60;3.60;;;;;;;;;;5020481;28;20136;-55
2021/08/11 11:36:43;;;;;;;4.85;3.50;;;;;;;;;;5008455;28;20049;-54
2021/08/11 11:39:11;;;;;;;5.75;3.70;;;;;;;;;;5009912;28;20400;-54
2021/08/11 11:41:39;;;;;;;5.18;4.00;;;;;;;;;;5031458;28;20037;-54
2021/08/11 11:44:24;;;;;;;6.40;3.67;;;;;;;;;;5022260;28;20038;-54
2021/08/11 11:46:51;;;;;;;5.55;3.38;;;;;;;;;;4996866;28;20050;-54
2021/08/11 11:49:18;;;;;;;9.38;4.20;;;;;;;;;;5008418;28;20038;-52
2021/08/11 11:51:45;;;;;;;5.10;3.67;;;;;;;;;;5003936;28;20057;-52
2021/08/11 11:54:12;;;;;;;7.15;3.40;;;;;;;;;;5024639;28;20038;-56
2021/08/11 11:56:39;;;;;;;7.15;4.72;;;;;;;;;;4996172;28;20052;-55
2021/08/11 11:59:07;;;;;;;7.18;4.40;;;;;;;;;;5007315;28;20060;-55
2021/08/11 12:01:37;;;;;;;5.47;4.05;;;;;;;;;;5008052;28;20034;-51
2021/08/11 12:04:04;;;;;;;5.68;4.10;;;;;;;;;;5006487;28;20121;-55
2021/08/11 12:06:35;;;;;;;5.82;3.75;;;;;;;;;;5011436;28;20133;-53
2021/08/11 12:09:02;;;;;;;5.75;3.80;;;;;;;;;;5008682;28;20137;-55
2021/08/11 12:11:29;;;;;;;5.38;3.90;;;;;;;;;;5007023;28;20038;-54
2021/08/11 12:13:56;;;;;;;6.65;4.00;;;;;;;;;;5013561;28;20486;-51
2021/08/11 12:16:32;;;;;;;6.40;4.03;;;;;;;;;;5007048;28;20120;-52
2021/08/11 12:19:07;;;;;;;5.30;3.78;;;;;;;;;;5013287;28;20072;-52
2021/08/11 12:21:34;;;;;;;5.78;4.18;;;;;;;;;;5010413;28;20406;-50
2021/08/11 12:24:02;;;;;;;5.47;3.88;;;;;;;;;;5001447;28;20049;-53
2021/08/11 12:26:30;;;;;;;6.05;4.40;;;;;;;;;;5008260;28;20452;-50
2021/08/11 12:28:58;;;;;;;5.85;4.45;;;;;;;;;;5007131;28;20549;-52
2021/08/11 12:31:26;;;;;;;6.50;4.00;;;;;;;;;;5010308;28;20034;-48
2021/08/11 12:33:55;;;;;;;6.35;4.38;;;;;;;;;;5005530;28;20078;-48
2021/08/11 12:36:22;;;;;;;5.88;3.95;;;;;;;;;;5000978;28;20511;-50
2021/08/11 12:38:58;;;;;;;5.38;3.70;;;;;;;;;;5006308;28;20048;-50
2021/08/11 12:41:26;;;;;;;7.63;4.40;;;;;;;;;;5014168;28;20092;-48
2021/08/11 12:43:54;;;;;;;7.93;4.47;;;;;;;;;;5008072;28;20160;-51
2021/08/11 12:46:38;;;;;;;8.93;4.78;;;;;;;;;;5003385;28;20052;-58
2021/08/11 12:49:15;;;;;;;5.47;4.13;;;;;;;;;;5014746;28;20049;-54
2021/08/11 12:51:42;;;;;;;6.15;4.43;;;;;;;;;;5010161;28;20398;-57
2021/08/11 12:54:10;;;;;;;5.85;4.20;;;;;;;;;;5007180;28;20042;-58
2021/08/11 12:56:53;;;;;;;7.15;4.22;;;;;;;;;;5003668;28;20042;-56
2021/08/11 12:59:20;;;;;;;6.18;3.80;;;;;;;;;;5003063;28;20465;-58
2021/08/11 13:01:47;;;;;;;6.18;4.07;;;;;;;;;;5002336;28;20064;-57
2021/08/11 13:04:14;;;;;;;5.28;3.85;;;;;;;;;;5005732;28;20092;-58
2021/08/11 13:06:41;;;;;;;6.80;4.00;;;;;;;;;;5009651;28;20049;-59
2021/08/11 13:09:18;;;;;;;4.90;3.67;;;;;;;;;;5004348;28;20049;-59
2021/08/11 13:11:57;;;;;;;5.45;3.80;;;;;;;;;;5003959;28;20480;-58
2021/08/11 13:14:44;;;;;;;8.90;4.30;;;;;;;;;;5003237;28;20116;-58
2021/08/11 13:17:12;;;;;;;6.70;4.22;;;;;;;;;;5007241;28;20100;-57
2021/08/11 13:19:39;;;;;;;5.03;3.85;;;;;;;;;;5006619;28;20050;-57
2021/08/11 13:22:06;;;;;;;5.85;4.28;;;;;;;;;;5007967;28;20057;-58
2021/08/11 13:24:32;;;;;;;6.32;4.13;;;;;;;;;;5007329;28;20040;-58
2021/08/11 13:27:00;;;;;;;7.70;4.43;;;;;;;;;;5007948;28;20053;-60
2021/08/11 13:29:29;;;;;;;5.72;4.07;;;;;;;;;;5005696;28;20084;-59
2021/08/11 13:31:56;;;;;;;5.00;3.88;;;;;;;;;;5006551;28;20177;-59
2021/08/11 13:34:23;;;;;;;5.82;4.22;;;;;;;;;;5006273;28;20046;-58
2021/08/11 13:36:50;;;;;;;5.78;4.20;;;;;;;;;;5011285;28;20038;-47
2021/08/11 13:39:17;;;;;;;4.90;4.25;;;;;;;;;;5001752;28;20049;-52
2021/08/11 13:41:44;;;;;;;5.95;3.97;;;;;;;;;;5002749;28;20046;-47
2021/08/11 13:44:11;;;;;;;5.35;3.70;;;;;;;;;;5003503;28;20042;-49
2021/08/11 13:46:39;;;;;;;7.47;4.50;;;;;;;;;;5002903;28;20045;-44
2021/08/11 13:49:07;;;;;;;5.50;3.95;;;;;;;;;;5004168;28;20101;-46
2021/08/11 13:51:34;;;;;;;4.95;4.10;;;;;;;;;;4997271;28;20050;-48
2021/08/11 13:54:01;;;;;;;5.50;4.35;;;;;;;;;;4999439;28;20042;-48
2021/08/11 13:56:29;;;;;;;5.40;4.00;;;;;;;;;;5004080;28;20042;-49
2021/08/11 13:58:56;;;;;;;5.88;4.47;;;;;;;;;;5000534;28;20035;-45
2021/08/11 14:01:22;;;;;;;6.05;4.20;;;;;;;;;;5004927;28;20050;-51
2021/08/11 14:03:50;;;;;;;4.85;3.72;;;;;;;;;;5001909;28;20042;-46
2021/08/11 14:06:16;;;;;;;5.13;4.20;;;;;;;;;;5005940;28;20097;-46
2021/08/11 14:08:43;;;;;;;5.97;4.13;;;;;;;;;;5009564;28;20472;-46
2021/08/11 14:11:10;;;;;;;8.38;4.10;;;;;;;;;;5001856;28;20457;-49
2021/08/11 14:13:37;;;;;;;5.18;3.75;;;;;;;;;;5010892;28;20490;-47
2021/08/11 14:16:04;;;;;;;8.18;4.18;;;;;;;;;;5005561;28;20053;-51
2021/08/11 14:18:31;;;;;;;9.25;4.25;;;;;;;;;;5003952;28;20042;-48
2021/08/11 14:20:58;;;;;;;5.90;4.20;;;;;;;;;;5008374;28;20109;-46
2021/08/11 14:23:25;;;;;;;5.80;3.95;;;;;;;;;;4999611;28;20415;-47
2021/08/11 14:25:51;;;;;;;5.72;4.00;;;;;;;;;;4997144;28;20038;-45
2021/08/11 14:28:18;;;;;;;6.22;4.00;;;;;;;;;;5003640;28;20045;-46
2021/08/11 14:30:45;;;;;;;7.03;4.22;;;;;;;;;;5004554;28;20049;-48
2021/08/11 14:33:12;;;;;;;4.90;3.60;;;;;;;;;;5013951;28;20049;-47
2021/08/11 14:35:40;;;;;;;7.10;4.15;;;;;;;;;;5004212;28;20056;-47
2021/08/11 14:38:07;;;;;;;6.55;4.40;;;;;;;;;;4995079;28;20046;-51
2021/08/11 14:40:34;;;;;;;5.78;3.78;;;;;;;;;;5005708;28;20462;-46
2021/08/11 14:43:01;;;;;;;6.18;4.45;;;;;;;;;;5012226;28;20042;-49
2021/08/11 14:45:32;;;;;;;7.70;4.45;;;;;;;;;;5005124;28;20065;-48
2021/08/11 14:47:59;;;;;;;5.95;4.03;;;;;;;;;;5001044;28;20050;-52
2021/08/11 14:50:26;;;;;;;7.07;3.85;;;;;;;;;;5002837;28;20133;-54
2021/08/11 14:52:53;;;;;;;5.78;3.97;;;;;;;;;;4998077;28;20065;-56